sensor_id;sensor_type;location;lat;lon;timestamp;P1;durP1;ratioP1;P2;durP2;ratioP2
3297;SDS011;1661;53.572;10.174;2023-07-13T00:01:43;4.50;;;2.67;;
3297;SDS011;1661;53.572;10.174;2023-07-13T00:04:13;5.13;;;2.60;;
3297;SDS011;1661;53.572;10.174;2023-07-13T00:06:40;8.00;;;3.03;;
3297;SDS011;1661;53.572;10.174;2023-07-13T00:09:09;2.43;;;2.20;;
3297;SDS011;1661;53.572;10.174;2023-07-13T00:11:37;3.80;;;3.03;;
3297;SDS011;1661;53.572;10.174;2023-07-13T00:14:04;6.23;;;3.00;;
3297;SDS011;1661;53.572;10.174;2023-07-13T00:18:59;4.00;;;3.00;;
3297;SDS011;1661;53.572;10.174;2023-07-13T00:21:27;3.20;;;2.37;;
3297;SDS011;1661;53.572;10.174;2023-07-13T00:23:54;3.20;;;2.90;;
3297;SDS011;1661;53.572;10.174;2023-07-13T00:26:21;2.50;;;2.13;;
3297;SDS011;1661;53.572;10.174;2023-07-13T00:28:48;10.83;;;3.27;;
3297;SDS011;1661;53.572;10.174;2023-07-13T00:31:15;6.40;;;3.00;;
3297;SDS011;1661;53.572;10.174;2023-07-13T00:33:41;5.63;;;4.00;;
3297;SDS011;1661;53.572;10.174;2023-07-13T00:36:08;2.77;;;2.57;;
3297;SDS011;1661;53.572;10.174;2023-07-13T00:38:37;5.43;;;2.60;;
3297;SDS011;1661;53.572;10.174;2023-07-13T00:41:04;5.30;;;2.23;;
3297;SDS011;1661;53.572;10.174;2023-07-13T00:43:31;4.03;;;2.27;;
3297;SDS011;1661;53.572;10.174;2023-07-13T00:46:13;3.30;;;2.83;;
3297;SDS011;1661;53.572;10.174;2023-07-13T00:48:46;2.70;;;2.50;;
3297;SDS011;1661;53.572;10.174;2023-07-13T00:51:15;4.00;;;2.23;;
3297;SDS011;1661;53.572;10.174;2023-07-13T00:53:47;2.90;;;2.33;;
3297;SDS011;1661;53.572;10.174;2023-07-13T00:56:14;6.80;;;3.30;;
3297;SDS011;1661;53.572;10.174;2023-07-13T00:58:41;7.50;;;3.30;;
3297;SDS011;1661;53.572;10.174;2023-07-13T01:01:08;5.13;;;3.17;;
3297;SDS011;1661;53.572;10.174;2023-07-13T01:03:35;4.10;;;2.77;;
3297;SDS011;1661;53.572;10.174;2023-07-13T01:06:03;7.13;;;2.83;;
3297;SDS011;1661;53.572;10.174;2023-07-13T01:08:31;4.57;;;2.90;;
3297;SDS011;1661;53.572;10.174;2023-07-13T01:11:01;7.07;;;3.80;;
3297;SDS011;1661;53.572;10.174;2023-07-13T01:13:28;5.80;;;2.93;;
3297;SDS011;1661;53.572;10.174;2023-07-13T01:15:55;4.00;;;2.87;;
3297;SDS011;1661;53.572;10.174;2023-07-13T01:18:25;6.20;;;3.83;;
3297;SDS011;1661;53.572;10.174;2023-07-13T01:20:55;4.60;;;2.80;;
3297;SDS011;1661;53.572;10.174;2023-07-13T01:23:23;4.80;;;3.47;;
3297;SDS011;1661;53.572;10.174;2023-07-13T01:25:51;3.10;;;2.80;;
3297;SDS011;1661;53.572;10.174;2023-07-13T01:28:20;3.63;;;3.33;;
3297;SDS011;1661;53.572;10.174;2023-07-13T01:30:48;2.67;;;2.47;;
3297;SDS011;1661;53.572;10.174;2023-07-13T01:33:16;5.23;;;3.07;;
3297;SDS011;1661;53.572;10.174;2023-07-13T01:35:44;7.53;;;3.43;;
3297;SDS011;1661;53.572;10.174;2023-07-13T01:38:14;2.87;;;2.63;;
3297;SDS011;1661;53.572;10.174;2023-07-13T01:40:42;2.93;;;2.73;;
3297;SDS011;1661;53.572;10.174;2023-07-13T01:43:09;5.70;;;2.80;;
3297;SDS011;1661;53.572;10.174;2023-07-13T01:45:36;3.30;;;2.70;;
3297;SDS011;1661;53.572;10.174;2023-07-13T01:48:03;9.43;;;3.60;;
3297;SDS011;1661;53.572;10.174;2023-07-13T01:50:31;3.90;;;3.23;;
3297;SDS011;1661;53.572;10.174;2023-07-13T01:52:58;6.33;;;2.80;;
3297;SDS011;1661;53.572;10.174;2023-07-13T01:55:27;7.10;;;3.17;;
3297;SDS011;1661;53.572;10.174;2023-07-13T01:57:54;5.07;;;3.00;;
3297;SDS011;1661;53.572;10.174;2023-07-13T02:00:21;4.87;;;3.10;;
3297;SDS011;1661;53.572;10.174;2023-07-13T02:02:48;6.30;;;3.50;;
3297;SDS011;1661;53.572;10.174;2023-07-13T02:05:15;6.63;;;3.70;;
3297;SDS011;1661;53.572;10.174;2023-07-13T02:07:42;5.77;;;4.10;;
3297;SDS011;1661;53.572;10.174;2023-07-13T02:10:09;7.60;;;4.00;;
3297;SDS011;1661;53.572;10.174;2023-07-13T02:12:42;9.43;;;4.63;;
3297;SDS011;1661;53.572;10.174;2023-07-13T02:15:09;6.17;;;5.37;;
3297;SDS011;1661;53.572;10.174;2023-07-13T02:17:36;4.20;;;3.80;;
3297;SDS011;1661;53.572;10.174;2023-07-13T02:20:03;8.57;;;4.50;;
3297;SDS011;1661;53.572;10.174;2023-07-13T02:22:31;5.20;;;3.83;;
3297;SDS011;1661;53.572;10.174;2023-07-13T02:24:58;9.37;;;3.80;;
3297;SDS011;1661;53.572;10.174;2023-07-13T02:27:25;4.80;;;4.40;;
3297;SDS011;1661;53.572;10.174;2023-07-13T02:29:53;4.83;;;4.53;;
3297;SDS011;1661;53.572;10.174;2023-07-13T02:32:20;7.60;;;4.63;;
3297;SDS011;1661;53.572;10.174;2023-07-13T02:34:46;7.73;;;5.53;;
3297;SDS011;1661;53.572;10.174;2023-07-13T02:37:13;13.83;;;5.80;;
3297;SDS011;1661;53.572;10.174;2023-07-13T02:39:40;5.33;;;4.43;;
3297;SDS011;1661;53.572;10.174;2023-07-13T02:42:07;7.60;;;5.37;;
3297;SDS011;1661;53.572;10.174;2023-07-13T02:44:34;5.20;;;4.70;;
3297;SDS011;1661;53.572;10.174;2023-07-13T02:47:02;8.27;;;5.93;;
3297;SDS011;1661;53.572;10.174;2023-07-13T02:49:29;8.77;;;4.30;;
3297;SDS011;1661;53.572;10.174;2023-07-13T02:51:56;4.90;;;4.60;;
3297;SDS011;1661;53.572;10.174;2023-07-13T02:54:23;6.00;;;5.40;;
3297;SDS011;1661;53.572;10.174;2023-07-13T02:56:50;5.40;;;5.00;;
3297;SDS011;1661;53.572;10.174;2023-07-13T02:59:17;8.23;;;4.43;;
3297;SDS011;1661;53.572;10.174;2023-07-13T03:01:43;6.93;;;6.37;;
3297;SDS011;1661;53.572;10.174;2023-07-13T03:04:11;7.60;;;5.57;;
3297;SDS011;1661;53.572;10.174;2023-07-13T03:06:38;6.83;;;5.33;;
3297;SDS011;1661;53.572;10.174;2023-07-13T03:09:05;8.30;;;5.80;;
3297;SDS011;1661;53.572;10.174;2023-07-13T03:11:33;5.07;;;4.43;;
3297;SDS011;1661;53.572;10.174;2023-07-13T03:13:59;7.13;;;4.63;;
3297;SDS011;1661;53.572;10.174;2023-07-13T03:16:26;4.63;;;4.20;;
3297;SDS011;1661;53.572;10.174;2023-07-13T03:18:53;8.07;;;6.00;;
3297;SDS011;1661;53.572;10.174;2023-07-13T03:21:21;9.40;;;6.90;;
3297;SDS011;1661;53.572;10.174;2023-07-13T03:23:48;14.70;;;6.07;;
3297;SDS011;1661;53.572;10.174;2023-07-13T03:26:16;17.63;;;6.00;;
3297;SDS011;1661;53.572;10.174;2023-07-13T03:28:44;8.73;;;5.90;;
3297;SDS011;1661;53.572;10.174;2023-07-13T03:31:12;8.80;;;5.53;;
3297;SDS011;1661;53.572;10.174;2023-07-13T03:33:41;10.00;;;6.60;;
3297;SDS011;1661;53.572;10.174;2023-07-13T03:36:11;5.87;;;5.37;;
3297;SDS011;1661;53.572;10.174;2023-07-13T03:38:40;8.20;;;7.40;;
3297;SDS011;1661;53.572;10.174;2023-07-13T03:41:07;9.43;;;6.57;;
3297;SDS011;1661;53.572;10.174;2023-07-13T03:43:34;12.20;;;6.30;;
3297;SDS011;1661;53.572;10.174;2023-07-13T03:46:01;5.27;;;4.77;;
3297;SDS011;1661;53.572;10.174;2023-07-13T03:48:27;7.40;;;6.33;;
3297;SDS011;1661;53.572;10.174;2023-07-13T03:50:54;5.73;;;5.30;;
3297;SDS011;1661;53.572;10.174;2023-07-13T03:53:21;6.43;;;4.77;;
3297;SDS011;1661;53.572;10.174;2023-07-13T03:55:49;7.47;;;4.70;;
3297;SDS011;1661;53.572;10.174;2023-07-13T03:58:24;5.83;;;5.33;;
3297;SDS011;1661;53.572;10.174;2023-07-13T04:00:54;7.43;;;6.73;;
3297;SDS011;1661;53.572;10.174;2023-07-13T04:03:21;7.00;;;6.37;;
3297;SDS011;1661;53.572;10.174;2023-07-13T04:05:48;7.20;;;6.50;;
3297;SDS011;1661;53.572;10.174;2023-07-13T04:08:15;13.30;;;7.73;;
3297;SDS011;1661;53.572;10.174;2023-07-13T04:10:41;16.83;;;7.13;;
3297;SDS011;1661;53.572;10.174;2023-07-13T04:13:10;7.03;;;6.37;;
3297;SDS011;1661;53.572;10.174;2023-07-13T04:15:37;7.70;;;4.53;;
3297;SDS011;1661;53.572;10.174;2023-07-13T04:18:05;9.33;;;5.47;;
3297;SDS011;1661;53.572;10.174;2023-07-13T04:20:32;7.73;;;6.90;;
3297;SDS011;1661;53.572;10.174;2023-07-13T04:22:59;7.07;;;6.30;;
3297;SDS011;1661;53.572;10.174;2023-07-13T04:25:26;7.90;;;6.97;;
3297;SDS011;1661;53.572;10.174;2023-07-13T04:27:53;8.03;;;6.40;;
3297;SDS011;1661;53.572;10.174;2023-07-13T04:30:21;9.77;;;6.17;;
3297;SDS011;1661;53.572;10.174;2023-07-13T04:32:49;8.53;;;6.47;;
3297;SDS011;1661;53.572;10.174;2023-07-13T04:35:17;8.57;;;6.03;;
3297;SDS011;1661;53.572;10.174;2023-07-13T04:37:45;8.70;;;7.10;;
3297;SDS011;1661;53.572;10.174;2023-07-13T04:40:12;20.07;;;7.77;;
3297;SDS011;1661;53.572;10.174;2023-07-13T04:42:39;11.43;;;7.40;;
3297;SDS011;1661;53.572;10.174;2023-07-13T04:45:06;7.90;;;6.30;;
3297;SDS011;1661;53.572;10.174;2023-07-13T04:47:35;14.77;;;7.27;;
3297;SDS011;1661;53.572;10.174;2023-07-13T04:50:02;10.00;;;7.90;;
3297;SDS011;1661;53.572;10.174;2023-07-13T04:52:29;14.67;;;5.33;;
3297;SDS011;1661;53.572;10.174;2023-07-13T04:54:58;8.07;;;6.50;;
3297;SDS011;1661;53.572;10.174;2023-07-13T04:57:25;5.60;;;4.93;;
3297;SDS011;1661;53.572;10.174;2023-07-13T04:59:52;11.17;;;6.43;;
3297;SDS011;1661;53.572;10.174;2023-07-13T05:02:20;6.63;;;5.60;;
3297;SDS011;1661;53.572;10.174;2023-07-13T05:04:48;9.87;;;6.20;;
3297;SDS011;1661;53.572;10.174;2023-07-13T05:07:15;8.40;;;5.40;;
3297;SDS011;1661;53.572;10.174;2023-07-13T05:09:42;11.53;;;7.20;;
3297;SDS011;1661;53.572;10.174;2023-07-13T05:12:09;11.10;;;7.37;;
3297;SDS011;1661;53.572;10.174;2023-07-13T05:14:36;9.43;;;7.90;;
3297;SDS011;1661;53.572;10.174;2023-07-13T05:17:03;11.87;;;7.20;;
3297;SDS011;1661;53.572;10.174;2023-07-13T05:19:30;9.83;;;7.37;;
3297;SDS011;1661;53.572;10.174;2023-07-13T05:21:58;7.77;;;6.77;;
3297;SDS011;1661;53.572;10.174;2023-07-13T05:24:25;13.33;;;7.50;;
3297;SDS011;1661;53.572;10.174;2023-07-13T05:26:52;7.80;;;7.00;;
3297;SDS011;1661;53.572;10.174;2023-07-13T05:29:19;17.23;;;7.40;;
3297;SDS011;1661;53.572;10.174;2023-07-13T05:31:46;7.70;;;7.00;;
3297;SDS011;1661;53.572;10.174;2023-07-13T05:34:13;7.57;;;6.70;;
3297;SDS011;1661;53.572;10.174;2023-07-13T05:36:40;8.40;;;6.33;;
3297;SDS011;1661;53.572;10.174;2023-07-13T05:39:08;8.23;;;7.50;;
3297;SDS011;1661;53.572;10.174;2023-07-13T05:41:36;10.80;;;6.80;;
3297;SDS011;1661;53.572;10.174;2023-07-13T05:44:03;14.30;;;8.47;;
3297;SDS011;1661;53.572;10.174;2023-07-13T05:46:30;12.33;;;5.80;;
3297;SDS011;1661;53.572;10.174;2023-07-13T05:48:57;21.90;;;7.10;;
3297;SDS011;1661;53.572;10.174;2023-07-13T05:51:23;10.63;;;5.93;;
3297;SDS011;1661;53.572;10.174;2023-07-13T05:53:50;15.00;;;6.93;;
3297;SDS011;1661;53.572;10.174;2023-07-13T05:56:18;12.70;;;5.77;;
3297;SDS011;1661;53.572;10.174;2023-07-13T05:58:45;14.23;;;6.30;;
3297;SDS011;1661;53.572;10.174;2023-07-13T06:01:14;11.40;;;6.67;;
3297;SDS011;1661;53.572;10.174;2023-07-13T06:03:42;9.23;;;5.80;;
3297;SDS011;1661;53.572;10.174;2023-07-13T06:06:09;10.53;;;5.00;;
3297;SDS011;1661;53.572;10.174;2023-07-13T06:08:37;14.00;;;5.53;;
3297;SDS011;1661;53.572;10.174;2023-07-13T06:11:03;20.83;;;5.70;;
3297;SDS011;1661;53.572;10.174;2023-07-13T06:13:33;22.93;;;7.10;;
3297;SDS011;1661;53.572;10.174;2023-07-13T06:16:01;19.97;;;5.47;;
3297;SDS011;1661;53.572;10.174;2023-07-13T06:18:30;15.33;;;6.70;;
3297;SDS011;1661;53.572;10.174;2023-07-13T06:20:57;22.10;;;5.87;;
3297;SDS011;1661;53.572;10.174;2023-07-13T06:23:23;15.80;;;6.40;;
3297;SDS011;1661;53.572;10.174;2023-07-13T06:25:50;13.60;;;5.93;;
3297;SDS011;1661;53.572;10.174;2023-07-13T06:28:17;13.80;;;4.80;;
3297;SDS011;1661;53.572;10.174;2023-07-13T06:30:46;13.47;;;5.37;;
3297;SDS011;1661;53.572;10.174;2023-07-13T06:33:13;15.37;;;4.70;;
3297;SDS011;1661;53.572;10.174;2023-07-13T06:35:39;13.60;;;4.80;;
3297;SDS011;1661;53.572;10.174;2023-07-13T06:38:06;17.83;;;5.30;;
3297;SDS011;1661;53.572;10.174;2023-07-13T06:40:33;15.07;;;4.67;;
3297;SDS011;1661;53.572;10.174;2023-07-13T06:43:00;15.03;;;5.53;;
3297;SDS011;1661;53.572;10.174;2023-07-13T06:45:26;15.43;;;6.10;;
3297;SDS011;1661;53.572;10.174;2023-07-13T06:47:55;9.53;;;5.33;;
3297;SDS011;1661;53.572;10.174;2023-07-13T06:50:21;11.43;;;5.27;;
3297;SDS011;1661;53.572;10.174;2023-07-13T06:52:48;11.50;;;4.80;;
3297;SDS011;1661;53.572;10.174;2023-07-13T06:55:15;17.40;;;5.70;;
3297;SDS011;1661;53.572;10.174;2023-07-13T06:57:42;19.50;;;5.73;;
3297;SDS011;1661;53.572;10.174;2023-07-13T07:00:09;13.00;;;4.70;;
3297;SDS011;1661;53.572;10.174;2023-07-13T07:02:37;9.67;;;4.67;;
3297;SDS011;1661;53.572;10.174;2023-07-13T07:05:05;17.50;;;5.40;;
3297;SDS011;1661;53.572;10.174;2023-07-13T07:07:32;11.60;;;5.80;;
3297;SDS011;1661;53.572;10.174;2023-07-13T07:09:59;19.63;;;5.20;;
3297;SDS011;1661;53.572;10.174;2023-07-13T07:12:28;10.03;;;4.93;;
3297;SDS011;1661;53.572;10.174;2023-07-13T07:14:55;6.97;;;5.30;;
3297;SDS011;1661;53.572;10.174;2023-07-13T07:17:22;17.37;;;5.03;;
3297;SDS011;1661;53.572;10.174;2023-07-13T07:19:50;15.67;;;5.47;;
3297;SDS011;1661;53.572;10.174;2023-07-13T07:22:20;7.37;;;4.13;;
3297;SDS011;1661;53.572;10.174;2023-07-13T07:24:47;15.23;;;4.80;;
3297;SDS011;1661;53.572;10.174;2023-07-13T07:27:14;10.43;;;4.10;;
3297;SDS011;1661;53.572;10.174;2023-07-13T07:29:40;13.43;;;5.03;;
3297;SDS011;1661;53.572;10.174;2023-07-13T07:32:07;15.33;;;5.50;;
3297;SDS011;1661;53.572;10.174;2023-07-13T07:34:34;7.33;;;4.00;;
3297;SDS011;1661;53.572;10.174;2023-07-13T07:37:01;19.47;;;5.50;;
3297;SDS011;1661;53.572;10.174;2023-07-13T07:39:30;16.07;;;5.17;;
3297;SDS011;1661;53.572;10.174;2023-07-13T07:41:57;11.20;;;4.30;;
3297;SDS011;1661;53.572;10.174;2023-07-13T07:44:23;8.40;;;4.60;;
3297;SDS011;1661;53.572;10.174;2023-07-13T07:46:52;17.20;;;4.73;;
3297;SDS011;1661;53.572;10.174;2023-07-13T07:49:19;12.43;;;3.97;;
3297;SDS011;1661;53.572;10.174;2023-07-13T07:51:46;9.00;;;4.70;;
3297;SDS011;1661;53.572;10.174;2023-07-13T07:54:13;5.00;;;4.03;;
3297;SDS011;1661;53.572;10.174;2023-07-13T07:56:41;11.53;;;3.77;;
3297;SDS011;1661;53.572;10.174;2023-07-13T07:59:08;7.83;;;4.10;;
3297;SDS011;1661;53.572;10.174;2023-07-13T08:01:34;12.00;;;4.37;;
3297;SDS011;1661;53.572;10.174;2023-07-13T08:04:01;15.27;;;4.47;;
3297;SDS011;1661;53.572;10.174;2023-07-13T08:06:28;21.63;;;5.00;;
3297;SDS011;1661;53.572;10.174;2023-07-13T08:08:55;8.93;;;4.67;;
3297;SDS011;1661;53.572;10.174;2023-07-13T08:11:22;10.80;;;4.90;;
3297;SDS011;1661;53.572;10.174;2023-07-13T08:13:50;13.57;;;4.90;;
3297;SDS011;1661;53.572;10.174;2023-07-13T08:16:17;13.30;;;4.70;;
3297;SDS011;1661;53.572;10.174;2023-07-13T08:18:44;11.10;;;4.57;;
3297;SDS011;1661;53.572;10.174;2023-07-13T08:21:11;8.43;;;4.23;;
3297;SDS011;1661;53.572;10.174;2023-07-13T08:23:38;9.40;;;4.30;;
3297;SDS011;1661;53.572;10.174;2023-07-13T08:26:04;10.70;;;4.13;;
3297;SDS011;1661;53.572;10.174;2023-07-13T08:28:32;12.60;;;4.57;;
3297;SDS011;1661;53.572;10.174;2023-07-13T08:31:01;6.70;;;3.07;;
3297;SDS011;1661;53.572;10.174;2023-07-13T08:33:28;11.00;;;4.60;;
3297;SDS011;1661;53.572;10.174;2023-07-13T08:35:55;10.10;;;4.13;;
3297;SDS011;1661;53.572;10.174;2023-07-13T08:38:22;15.97;;;4.37;;
3297;SDS011;1661;53.572;10.174;2023-07-13T08:40:50;14.30;;;3.87;;
3297;SDS011;1661;53.572;10.174;2023-07-13T08:43:20;15.50;;;4.20;;
3297;SDS011;1661;53.572;10.174;2023-07-13T08:45:52;19.50;;;3.60;;
3297;SDS011;1661;53.572;10.174;2023-07-13T08:48:26;8.20;;;4.23;;
3297;SDS011;1661;53.572;10.174;2023-07-13T08:50:58;12.33;;;3.47;;
3297;SDS011;1661;53.572;10.174;2023-07-13T08:53:32;7.43;;;3.17;;
3297;SDS011;1661;53.572;10.174;2023-07-13T08:56:03;9.50;;;3.73;;
3297;SDS011;1661;53.572;10.174;2023-07-13T08:58:35;12.87;;;3.97;;
3297;SDS011;1661;53.572;10.174;2023-07-13T09:01:05;17.43;;;3.90;;
3297;SDS011;1661;53.572;10.174;2023-07-13T09:03:46;7.33;;;3.40;;
3297;SDS011;1661;53.572;10.174;2023-07-13T09:06:20;13.10;;;4.07;;
3297;SDS011;1661;53.572;10.174;2023-07-13T09:08:55;5.50;;;3.20;;
3297;SDS011;1661;53.572;10.174;2023-07-13T09:11:30;8.80;;;3.47;;
3297;SDS011;1661;53.572;10.174;2023-07-13T09:14:06;17.40;;;4.10;;
3297;SDS011;1661;53.572;10.174;2023-07-13T09:16:49;9.77;;;3.43;;
3297;SDS011;1661;53.572;10.174;2023-07-13T09:19:20;8.60;;;3.70;;
3297;SDS011;1661;53.572;10.174;2023-07-13T09:21:52;6.43;;;3.40;;
3297;SDS011;1661;53.572;10.174;2023-07-13T09:24:26;12.33;;;4.40;;
3297;SDS011;1661;53.572;10.174;2023-07-13T09:26:58;7.20;;;3.47;;
3297;SDS011;1661;53.572;10.174;2023-07-13T09:29:26;8.47;;;3.97;;
3297;SDS011;1661;53.572;10.174;2023-07-13T09:31:55;7.93;;;3.53;;
3297;SDS011;1661;53.572;10.174;2023-07-13T09:34:26;13.00;;;3.90;;
3297;SDS011;1661;53.572;10.174;2023-07-13T09:36:54;10.27;;;3.80;;
3297;SDS011;1661;53.572;10.174;2023-07-13T09:39:24;8.27;;;3.70;;
3297;SDS011;1661;53.572;10.174;2023-07-13T09:41:54;5.70;;;3.00;;
3297;SDS011;1661;53.572;10.174;2023-07-13T09:44:28;4.60;;;2.73;;
3297;SDS011;1661;53.572;10.174;2023-07-13T09:46:57;3.57;;;2.37;;
3297;SDS011;1661;53.572;10.174;2023-07-13T09:49:26;4.80;;;3.20;;
3297;SDS011;1661;53.572;10.174;2023-07-13T09:51:57;5.47;;;3.40;;
3297;SDS011;1661;53.572;10.174;2023-07-13T09:54:25;6.30;;;3.30;;
3297;SDS011;1661;53.572;10.174;2023-07-13T09:56:56;13.50;;;3.30;;
3297;SDS011;1661;53.572;10.174;2023-07-13T09:59:27;15.73;;;4.30;;
3297;SDS011;1661;53.572;10.174;2023-07-13T10:01:56;9.90;;;2.87;;
3297;SDS011;1661;53.572;10.174;2023-07-13T10:04:27;6.43;;;3.30;;
3297;SDS011;1661;53.572;10.174;2023-07-13T10:07:04;11.80;;;3.93;;
3297;SDS011;1661;53.572;10.174;2023-07-13T10:09:32;7.20;;;3.23;;
3297;SDS011;1661;53.572;10.174;2023-07-13T10:11:59;5.07;;;3.47;;
3297;SDS011;1661;53.572;10.174;2023-07-13T10:14:26;9.33;;;3.20;;
3297;SDS011;1661;53.572;10.174;2023-07-13T10:16:57;4.40;;;3.10;;
3297;SDS011;1661;53.572;10.174;2023-07-13T10:19:29;5.63;;;2.90;;
3297;SDS011;1661;53.572;10.174;2023-07-13T10:21:59;5.13;;;3.00;;
3297;SDS011;1661;53.572;10.174;2023-07-13T10:24:29;7.80;;;2.70;;
3297;SDS011;1661;53.572;10.174;2023-07-13T10:27:04;8.13;;;3.20;;
3297;SDS011;1661;53.572;10.174;2023-07-13T10:29:44;16.43;;;3.57;;
3297;SDS011;1661;53.572;10.174;2023-07-13T10:32:14;8.40;;;3.60;;
3297;SDS011;1661;53.572;10.174;2023-07-13T10:34:44;7.70;;;3.17;;
3297;SDS011;1661;53.572;10.174;2023-07-13T10:37:15;10.23;;;3.40;;
3297;SDS011;1661;53.572;10.174;2023-07-13T10:39:46;9.23;;;2.90;;
3297;SDS011;1661;53.572;10.174;2023-07-13T10:42:15;10.80;;;2.77;;
3297;SDS011;1661;53.572;10.174;2023-07-13T10:44:52;6.40;;;3.27;;
3297;SDS011;1661;53.572;10.174;2023-07-13T10:47:19;6.70;;;2.53;;
3297;SDS011;1661;53.572;10.174;2023-07-13T10:49:47;9.13;;;3.07;;
3297;SDS011;1661;53.572;10.174;2023-07-13T10:55:11;6.50;;;3.07;;
3297;SDS011;1661;53.572;10.174;2023-07-13T10:57:59;11.20;;;3.60;;
3297;SDS011;1661;53.572;10.174;2023-07-13T11:00:29;6.70;;;3.50;;
3297;SDS011;1661;53.572;10.174;2023-07-13T11:02:58;8.50;;;3.07;;
3297;SDS011;1661;53.572;10.174;2023-07-13T11:05:30;12.20;;;3.03;;
3297;SDS011;1661;53.572;10.174;2023-07-13T11:08:03;6.47;;;3.07;;
3297;SDS011;1661;53.572;10.174;2023-07-13T11:10:51;4.47;;;3.03;;
3297;SDS011;1661;53.572;10.174;2023-07-13T11:13:39;5.27;;;2.70;;
3297;SDS011;1661;53.572;10.174;2023-07-13T11:16:34;8.07;;;2.77;;
3297;SDS011;1661;53.572;10.174;2023-07-13T11:19:22;8.03;;;2.70;;
3297;SDS011;1661;53.572;10.174;2023-07-13T11:22:11;8.87;;;3.30;;
3297;SDS011;1661;53.572;10.174;2023-07-13T11:24:48;3.90;;;2.37;;
3297;SDS011;1661;53.572;10.174;2023-07-13T11:27:23;6.30;;;2.10;;
3297;SDS011;1661;53.572;10.174;2023-07-13T11:35:48;4.43;;;2.80;;
3297;SDS011;1661;53.572;10.174;2023-07-13T11:38:20;3.97;;;2.13;;
3297;SDS011;1661;53.572;10.174;2023-07-13T11:40:50;7.60;;;2.67;;
3297;SDS011;1661;53.572;10.174;2023-07-13T11:43:20;7.23;;;3.00;;
3297;SDS011;1661;53.572;10.174;2023-07-13T11:45:48;5.80;;;2.23;;
3297;SDS011;1661;53.572;10.174;2023-07-13T11:48:19;5.83;;;2.60;;
3297;SDS011;1661;53.572;10.174;2023-07-13T11:50:51;11.53;;;2.30;;
3297;SDS011;1661;53.572;10.174;2023-07-13T11:53:24;4.63;;;2.40;;
3297;SDS011;1661;53.572;10.174;2023-07-13T11:55:53;3.43;;;2.53;;
3297;SDS011;1661;53.572;10.174;2023-07-13T11:58:21;27.47;;;5.57;;
3297;SDS011;1661;53.572;10.174;2023-07-13T12:00:50;7.30;;;2.63;;
3297;SDS011;1661;53.572;10.174;2023-07-13T12:03:20;8.50;;;3.13;;
3297;SDS011;1661;53.572;10.174;2023-07-13T12:05:55;6.37;;;2.03;;
3297;SDS011;1661;53.572;10.174;2023-07-13T12:08:28;8.13;;;3.27;;
3297;SDS011;1661;53.572;10.174;2023-07-13T12:11:04;5.20;;;2.27;;
3297;SDS011;1661;53.572;10.174;2023-07-13T12:13:37;7.20;;;3.20;;
3297;SDS011;1661;53.572;10.174;2023-07-13T12:16:11;4.20;;;2.47;;
3297;SDS011;1661;53.572;10.174;2023-07-13T12:18:41;7.53;;;2.47;;
3297;SDS011;1661;53.572;10.174;2023-07-13T12:21:12;6.70;;;2.57;;
3297;SDS011;1661;53.572;10.174;2023-07-13T12:23:44;9.50;;;2.67;;
3297;SDS011;1661;53.572;10.174;2023-07-13T12:26:14;6.13;;;2.50;;
3297;SDS011;1661;53.572;10.174;2023-07-13T12:28:44;4.07;;;2.43;;
3297;SDS011;1661;53.572;10.174;2023-07-13T12:31:33;11.23;;;3.50;;
3297;SDS011;1661;53.572;10.174;2023-07-13T12:34:02;7.07;;;2.37;;
3297;SDS011;1661;53.572;10.174;2023-07-13T12:36:33;34.33;;;4.27;;
3297;SDS011;1661;53.572;10.174;2023-07-13T12:39:04;8.03;;;3.63;;
3297;SDS011;1661;53.572;10.174;2023-07-13T12:41:39;8.70;;;3.23;;
3297;SDS011;1661;53.572;10.174;2023-07-13T12:44:08;5.87;;;3.30;;
3297;SDS011;1661;53.572;10.174;2023-07-13T12:46:37;6.47;;;3.27;;
3297;SDS011;1661;53.572;10.174;2023-07-13T12:49:05;3.83;;;2.97;;
3297;SDS011;1661;53.572;10.174;2023-07-13T12:51:33;13.40;;;3.83;;
3297;SDS011;1661;53.572;10.174;2023-07-13T12:54:12;5.30;;;2.93;;
3297;SDS011;1661;53.572;10.174;2023-07-13T12:56:41;2.83;;;1.90;;
3297;SDS011;1661;53.572;10.174;2023-07-13T12:59:11;9.80;;;3.00;;
3297;SDS011;1661;53.572;10.174;2023-07-13T13:01:43;4.70;;;2.60;;
3297;SDS011;1661;53.572;10.174;2023-07-13T13:04:12;3.57;;;2.20;;
3297;SDS011;1661;53.572;10.174;2023-07-13T13:06:39;4.83;;;2.80;;
3297;SDS011;1661;53.572;10.174;2023-07-13T13:09:11;4.93;;;2.57;;
3297;SDS011;1661;53.572;10.174;2023-07-13T13:11:39;12.17;;;3.00;;
3297;SDS011;1661;53.572;10.174;2023-07-13T13:14:06;3.47;;;2.03;;
3297;SDS011;1661;53.572;10.174;2023-07-13T13:16:34;3.43;;;3.10;;
3297;SDS011;1661;53.572;10.174;2023-07-13T13:19:13;5.27;;;2.80;;
3297;SDS011;1661;53.572;10.174;2023-07-13T13:21:42;5.73;;;2.83;;
3297;SDS011;1661;53.572;10.174;2023-07-13T13:24:13;2.50;;;2.30;;
3297;SDS011;1661;53.572;10.174;2023-07-13T13:26:41;9.30;;;3.33;;
3297;SDS011;1661;53.572;10.174;2023-07-13T13:29:11;7.53;;;3.13;;
3297;SDS011;1661;53.572;10.174;2023-07-13T13:31:40;3.23;;;2.80;;
3297;SDS011;1661;53.572;10.174;2023-07-13T13:34:08;5.23;;;2.97;;
3297;SDS011;1661;53.572;10.174;2023-07-13T13:36:36;2.80;;;2.10;;
3297;SDS011;1661;53.572;10.174;2023-07-13T13:39:05;4.13;;;2.40;;
3297;SDS011;1661;53.572;10.174;2023-07-13T13:41:47;2.83;;;2.23;;
3297;SDS011;1661;53.572;10.174;2023-07-13T13:44:15;3.40;;;3.03;;
3297;SDS011;1661;53.572;10.174;2023-07-13T13:46:43;3.40;;;2.33;;
3297;SDS011;1661;53.572;10.174;2023-07-13T13:49:12;4.73;;;2.60;;
3297;SDS011;1661;53.572;10.174;2023-07-13T13:51:42;3.00;;;2.60;;
3297;SDS011;1661;53.572;10.174;2023-07-13T13:54:10;5.17;;;2.40;;
3297;SDS011;1661;53.572;10.174;2023-07-13T13:56:40;3.30;;;2.33;;
3297;SDS011;1661;53.572;10.174;2023-07-13T13:59:08;9.00;;;2.93;;
3297;SDS011;1661;53.572;10.174;2023-07-13T14:01:35;2.97;;;1.80;;
3297;SDS011;1661;53.572;10.174;2023-07-13T14:04:02;4.13;;;2.10;;
3297;SDS011;1661;53.572;10.174;2023-07-13T14:06:30;3.40;;;2.47;;
3297;SDS011;1661;53.572;10.174;2023-07-13T14:08:58;3.87;;;2.20;;
3297;SDS011;1661;53.572;10.174;2023-07-13T14:11:25;2.60;;;2.40;;
3297;SDS011;1661;53.572;10.174;2023-07-13T14:13:54;5.70;;;3.00;;
3297;SDS011;1661;53.572;10.174;2023-07-13T14:16:32;3.23;;;3.00;;
3297;SDS011;1661;53.572;10.174;2023-07-13T14:19:00;6.57;;;2.90;;
3297;SDS011;1661;53.572;10.174;2023-07-13T14:21:28;3.10;;;2.20;;
3297;SDS011;1661;53.572;10.174;2023-07-13T14:23:55;3.97;;;2.33;;
3297;SDS011;1661;53.572;10.174;2023-07-13T14:26:23;6.00;;;3.13;;
3297;SDS011;1661;53.572;10.174;2023-07-13T14:28:54;2.07;;;1.93;;
3297;SDS011;1661;53.572;10.174;2023-07-13T14:31:23;3.00;;;2.73;;
3297;SDS011;1661;53.572;10.174;2023-07-13T14:33:51;3.03;;;2.43;;
3297;SDS011;1661;53.572;10.174;2023-07-13T14:36:21;3.50;;;3.20;;
3297;SDS011;1661;53.572;10.174;2023-07-13T14:38:52;3.40;;;3.10;;
3297;SDS011;1661;53.572;10.174;2023-07-13T14:41:19;3.70;;;2.37;;
3297;SDS011;1661;53.572;10.174;2023-07-13T14:43:47;6.67;;;3.10;;
3297;SDS011;1661;53.572;10.174;2023-07-13T14:46:18;3.20;;;2.37;;
3297;SDS011;1661;53.572;10.174;2023-07-13T14:48:50;3.03;;;1.67;;
3297;SDS011;1661;53.572;10.174;2023-07-13T14:51:17;3.10;;;2.60;;
3297;SDS011;1661;53.572;10.174;2023-07-13T14:53:44;7.30;;;2.87;;
3297;SDS011;1661;53.572;10.174;2023-07-13T14:56:11;8.70;;;2.70;;
3297;SDS011;1661;53.572;10.174;2023-07-13T14:58:40;3.63;;;3.13;;
3297;SDS011;1661;53.572;10.174;2023-07-13T15:01:08;4.37;;;3.97;;
3297;SDS011;1661;53.572;10.174;2023-07-13T15:03:40;3.13;;;2.30;;
3297;SDS011;1661;53.572;10.174;2023-07-13T15:06:10;8.40;;;2.47;;
3297;SDS011;1661;53.572;10.174;2023-07-13T15:08:38;3.40;;;1.93;;
3297;SDS011;1661;53.572;10.174;2023-07-13T15:11:06;3.03;;;2.70;;
3297;SDS011;1661;53.572;10.174;2023-07-13T15:13:32;2.90;;;2.60;;
3297;SDS011;1661;53.572;10.174;2023-07-13T15:16:00;6.50;;;3.63;;
3297;SDS011;1661;53.572;10.174;2023-07-13T15:18:27;6.13;;;3.70;;
3297;SDS011;1661;53.572;10.174;2023-07-13T15:20:56;5.93;;;2.93;;